Time;durP1;ratioP1;P1;durP2;ratioP2;P2;SDS_P1;SDS_P2;PMS_P1;PMS_P2;Temp;Humidity;BMP_temperature;BMP_pressure;BME280_temperature;BME280_humidity;BME280_pressure;Samples;Min_cycle;Max_cycle;Signal;HPM_P1;HPM_P2
2022/10/23 00:01:17;;;;;;;2.92;2.17;;;;;;;14.15;71.96;100893.34;5069056;29;20040;-83
2022/10/23 00:03:57;;;;;;;0.60;0.60;;;;;;;14.13;72.11;100889.91;5087976;29;20028;-82
2022/10/23 00:06:30;;;;;;;1.40;1.30;;;;;;;14.12;71.83;100891.69;5086942;29;20036;-82
2022/10/23 00:09:03;;;;;;;1.30;1.25;;;;;;;14.13;71.47;100885.50;5091048;29;20039;-82
2022/10/23 00:11:35;;;;;;;0.60;0.60;;;;;;;14.08;71.47;100879.53;5068334;29;20542;-83
2022/10/23 00:14:07;;;;;;;0.93;0.93;;;;;;;14.08;71.41;100886.56;5092148;29;20039;-82
2022/10/23 00:16:37;;;;;;;2.60;0.50;;;;;;;14.00;71.84;100876.34;5090593;29;20064;-82
2022/10/23 00:19:08;;;;;;;3.85;1.55;;;;;;;13.96;72.01;100883.53;5091515;29;20059;-82
2022/10/23 00:21:38;;;;;;;0.52;0.52;;;;;;;13.99;71.97;100887.81;5103557;29;20028;-82
2022/10/23 00:24:09;;;;;;;1.15;1.10;;;;;;;13.92;71.55;100897.72;5085779;29;20607;-82
2022/10/23 00:26:40;;;;;;;2.13;1.90;;;;;;;13.92;71.72;100884.53;5103442;29;20040;-81
2022/10/23 00:29:11;;;;;;;0.95;0.95;;;;;;;13.90;71.58;100891.66;5121451;28;20047;-81
2022/10/23 00:31:41;;;;;;;0.82;0.82;;;;;;;13.88;71.54;100892.63;5103445;29;20073;-81
2022/10/23 00:34:12;;;;;;;0.98;0.45;;;;;;;13.84;71.92;100890.09;5105509;29;20037;-82
2022/10/23 00:36:42;;;;;;;2.42;0.82;;;;;;;13.84;71.68;100884.81;5088914;29;20032;-83
2022/10/23 00:39:13;;;;;;;0.57;0.57;;;;;;;13.81;71.74;100881.44;5107415;29;20050;-81
2022/10/23 00:41:43;;;;;;;4.10;1.55;;;;;;;13.77;71.60;100882.50;5106902;29;20094;-82
2022/10/23 00:44:17;;;;;;;6.43;1.05;;;;;;;13.74;71.73;100869.41;5106140;28;20089;-82
2022/10/23 00:46:48;;;;;;;2.88;2.65;;;;;;;13.65;71.90;100868.00;5102233;29;20368;-82
2022/10/23 00:49:19;;;;;;;1.50;1.40;;;;;;;13.64;72.05;100856.56;5089705;29;20030;-82
2022/10/23 00:51:58;;;;;;;0.93;0.93;;;;;;;13.60;71.73;100856.75;5085921;29;20032;-82
2022/10/23 00:54:36;;;;;;;1.55;1.45;;;;;;;13.57;72.67;100864.78;5102058;29;20640;-82
2022/10/23 00:57:12;;;;;;;1.02;1.00;;;;;;;13.53;72.14;100858.78;5087714;29;20183;-82
2022/10/23 00:59:42;;;;;;;0.73;0.70;;;;;;;13.49;72.35;100862.41;5083117;29;20416;-82
2022/10/23 01:02:14;;;;;;;1.13;0.98;;;;;;;13.48;72.35;100863.34;5078641;29;20068;-82
2022/10/23 01:04:44;;;;;;;2.03;1.58;;;;;;;13.47;73.00;100867.75;5102095;28;20118;-82
2022/10/23 01:07:43;;;;;;;1.30;1.20;;;;;;;13.47;72.44;100862.50;5108281;28;20123;-82
2022/10/23 01:10:24;;;;;;;1.90;1.80;;;;;;;13.46;72.70;100863.41;5040339;29;20040;-82
2022/10/23 01:13:01;;;;;;;1.10;1.00;;;;;;;13.48;72.57;100863.34;5085401;29;21111;-82
2022/10/23 01:15:55;;;;;;;0.65;0.65;;;;;;;13.47;72.64;100861.66;5087391;29;20182;-82
2022/10/23 01:18:48;;;;;;;2.25;1.88;;;;;;;13.42;73.04;100861.81;5115001;29;20036;-83
2022/10/23 01:21:48;;;;;;;0.93;0.93;;;;;;;13.33;75.28;100868.22;5121374;29;20055;-82
2022/10/23 01:24:49;;;;;;;2.05;1.67;;;;;;;13.34;73.85;100869.94;5117460;29;20027;-82
2022/10/23 01:27:24;;;;;;;3.17;2.50;;;;;;;13.37;73.65;100861.06;5096028;29;20067;-81
2022/10/23 01:30:04;;;;;;;0.63;0.60;;;;;;;13.37;73.73;100853.16;5081877;29;20059;-82
2022/10/23 01:32:52;;;;;;;0.73;0.73;;;;;;;13.42;73.14;100850.38;5110451;29;20027;-82
2022/10/23 01:35:33;;;;;;;0.77;0.77;;;;;;;13.42;73.40;100848.63;5108524;29;20899;-82
2022/10/23 01:38:17;;;;;;;0.40;0.40;;;;;;;13.43;73.38;100841.56;5092980;29;20703;-82
2022/10/23 01:41:01;;;;;;;6.55;1.50;;;;;;;13.41;73.18;100832.84;5093126;29;20054;-82
2022/10/23 01:43:40;;;;;;;0.57;0.57;;;;;;;13.43;73.41;100834.50;5107979;29;20032;-83
2022/10/23 01:46:15;;;;;;;0.98;0.93;;;;;;;13.46;73.15;100836.19;5123604;28;20051;-82
2022/10/23 01:48:52;;;;;;;0.80;0.80;;;;;;;13.45;73.20;100824.78;5099372;29;20142;-82
2022/10/23 01:51:26;;;;;;;0.95;0.95;;;;;;;13.47;73.01;100828.22;5109015;29;20058;-83
2022/10/23 01:53:59;;;;;;;0.88;0.88;;;;;;;13.46;73.34;100817.75;5093716;29;20477;-82
2022/10/23 01:56:33;;;;;;;1.13;1.13;;;;;;;13.44;73.01;100809.03;5090989;29;20056;-82
2022/10/23 01:59:09;;;;;;;0.40;0.40;;;;;;;13.40;73.52;100807.41;5111060;29;20028;-82
2022/10/23 02:01:44;;;;;;;1.83;1.73;;;;;;;13.37;73.74;100803.09;5100248;29;20075;-81
2022/10/23 02:04:20;;;;;;;3.72;1.23;;;;;;;13.43;73.08;100802.88;5097190;28;20743;-82
2022/10/23 02:06:51;;;;;;;1.90;1.17;;;;;;;13.42;73.18;100805.59;5093621;29;20091;-83
2022/10/23 02:09:21;;;;;;;1.02;1.02;;;;;;;13.42;73.18;100803.81;5115440;28;20633;-83
2022/10/23 02:12:17;;;;;;;0.77;0.77;;;;;;;13.42;72.96;100795.91;5106572;29;20036;-82
2022/10/23 02:15:01;;;;;;;0.77;0.77;;;;;;;13.46;72.83;100797.50;5068646;29;20036;-82
2022/10/23 02:17:51;;;;;;;1.27;1.10;;;;;;;13.40;73.12;100803.03;5107979;29;20511;-83
2022/10/23 02:20:37;;;;;;;0.60;0.60;;;;;;;13.41;73.00;100793.31;5080703;29;20043;-82
2022/10/23 02:23:13;;;;;;;1.15;1.05;;;;;;;13.38;73.17;100796.91;5090601;29;20027;-81
2022/10/23 02:26:00;;;;;;;1.10;1.05;;;;;;;13.37;73.47;100792.53;5091976;29;20039;-82
2022/10/23 02:28:46;;;;;;;0.70;0.70;;;;;;;13.39;73.13;100788.13;5092235;29;20035;-83
2022/10/23 02:31:20;;;;;;;0.45;0.45;;;;;;;13.38;73.10;100770.56;5087317;29;20529;-83
2022/10/23 02:33:50;;;;;;;0.47;0.47;;;;;;;13.35;73.66;100765.38;5109492;29;20132;-82
2022/10/23 02:36:21;;;;;;;5.47;1.42;;;;;;;13.35;73.29;100758.34;5098085;29;20124;-82
2022/10/23 02:38:52;;;;;;;1.88;1.38;;;;;;;13.36;73.30;100767.09;5091103;29;20031;-82
2022/10/23 02:41:38;;;;;;;0.68;0.68;;;;;;;13.34;73.30;100758.44;5074537;29;20044;-82
2022/10/23 02:44:18;;;;;;;2.75;1.08;;;;;;;13.33;73.46;100759.34;5073424;29;20024;-82
2022/10/23 02:47:07;;;;;;;0.57;0.57;;;;;;;13.30;73.53;100760.31;5106670;29;20048;-81
2022/10/23 02:49:56;;;;;;;0.55;0.55;;;;;;;13.26;73.80;100766.59;5103197;29;20040;-82
2022/10/23 02:53:01;;;;;;;0.52;0.52;;;;;;;13.26;74.07;100766.59;5107348;29;20042;-82
2022/10/23 02:55:47;;;;;;;0.20;0.20;;;;;;;13.22;75.50;100757.97;5120878;28;20125;-82
2022/10/23 02:58:40;;;;;;;0.98;0.65;;;;;;;13.21;76.32;100758.88;5089013;29;20502;-82
2022/10/23 03:01:14;;;;;;;0.30;0.30;;;;;;;13.20;75.27;100756.31;5103003;29;20047;-82
2022/10/23 03:03:54;;;;;;;1.63;1.23;;;;;;;13.22;75.57;100755.31;5122200;29;20036;-82
2022/10/23 03:06:25;;;;;;;0.20;0.20;;;;;;;13.26;75.33;100744.69;5084840;29;20047;-82
2022/10/23 03:09:03;;;;;;;0.60;0.60;;;;;;;13.28;75.02;100732.28;5104318;29;20122;-82
2022/10/23 03:11:34;;;;;;;1.27;0.60;;;;;;;13.27;76.97;100727.94;5104000;29;20779;-82
2022/10/23 03:14:04;;;;;;;1.50;0.82;;;;;;;13.30;75.53;100719.91;5120827;28;20035;-82
2022/10/23 03:16:35;;;;;;;9.77;0.90;;;;;;;13.33;74.83;100720.66;5104448;29;20650;-82
2022/10/23 03:19:05;;;;;;;0.20;0.20;;;;;;;13.34;75.35;100716.25;5105778;29;20079;-82
2022/10/23 03:21:36;;;;;;;0.32;0.32;;;;;;;13.36;75.57;100707.38;5090246;29;20514;-82
2022/10/23 03:24:07;;;;;;;0.22;0.22;;;;;;;13.33;79.48;100717.19;5076240;29;20029;-83
2022/10/23 03:26:37;;;;;;;0.30;0.30;;;;;;;13.43;77.85;100704.53;5106450;29;20129;-81
2022/10/23 03:29:08;;;;;;;0.30;0.30;;;;;;;13.40;80.09;100708.16;5106693;29;20039;-82
2022/10/23 03:31:38;;;;;;;0.30;0.30;;;;;;;13.36;77.95;100709.13;5088130;29;20043;-82
2022/10/23 03:34:10;;;;;;;1.95;1.15;;;;;;;13.40;77.00;100705.50;5106427;29;20032;-83
2022/10/23 03:36:40;;;;;;;0.20;0.20;;;;;;;13.40;77.41;100705.50;5114745;28;20078;-82
2022/10/23 03:39:11;;;;;;;0.50;0.50;;;;;;;13.45;76.25;100714.09;5122712;28;20081;-83
2022/10/23 03:41:42;;;;;;;1.10;0.65;;;;;;;13.45;76.77;100714.09;5088189;29;20043;-82
2022/10/23 03:44:12;;;;;;;0.40;0.40;;;;;;;13.47;76.64;100721.94;5076222;28;20055;-83
2022/10/23 03:46:43;;;;;;;0.20;0.20;;;;;;;13.48;77.10;100716.59;5104607;28;20075;-81
2022/10/23 03:49:14;;;;;;;0.40;0.40;;;;;;;13.47;76.90;100704.34;5091338;29;20036;-82
2022/10/23 03:51:50;;;;;;;0.50;0.50;;;;;;;13.49;77.63;100705.16;5121265;29;20059;-83
2022/10/23 03:54:23;;;;;;;0.55;0.55;;;;;;;13.48;77.09;100706.06;5121344;28;20083;-82
2022/10/23 03:56:55;;;;;;;0.35;0.35;;;;;;;13.51;76.96;100707.72;5108599;29;20044;-82
2022/10/23 03:59:27;;;;;;;0.47;0.47;;;;;;;13.44;78.46;100707.09;5121071;28;20106;-82
2022/10/23 04:01:57;;;;;;;0.30;0.30;;;;;;;13.47;78.51;100691.16;5090192;29;20028;-82
2022/10/23 04:04:28;;;;;;;0.77;0.77;;;;;;;13.55;78.70;100698.78;5107895;29;20027;-82
2022/10/23 04:06:58;;;;;;;0.40;0.40;;;;;;;13.57;78.14;100696.06;5076384;29;20040;-82
2022/10/23 04:09:29;;;;;;;0.73;0.73;;;;;;;13.65;77.50;100699.25;5102231;29;20070;-82
2022/10/23 04:11:59;;;;;;;0.30;0.30;;;;;;;13.61;77.06;100698.53;5088580;29;20130;-81
2022/10/23 04:14:30;;;;;;;0.43;0.43;;;;;;;13.64;77.31;100697.53;5087107;29;25431;-82
2022/10/23 04:17:00;;;;;;;0.75;0.75;;;;;;;13.64;77.23;100681.72;5105660;29;20055;-81
2022/10/23 04:19:31;;;;;;;1.63;0.98;;;;;;;13.66;77.38;100682.53;5089820;29;20034;-82
2022/10/23 04:22:02;;;;;;;2.05;1.10;;;;;;;13.67;77.21;100682.44;5109247;29;20039;-82
2022/10/23 04:24:32;;;;;;;0.82;0.82;;;;;;;13.66;78.56;100685.16;5118892;29;20035;-82
2022/10/23 04:27:03;;;;;;;0.25;0.25;;;;;;;13.75;80.07;100678.63;5090510;29;20024;-82
2022/10/23 04:29:33;;;;;;;0.20;0.20;;;;;;;13.64;79.60;100681.72;5073882;28;20051;-82
2022/10/23 04:32:06;;;;;;;0.40;0.40;;;;;;;13.61;81.16;100671.28;5120190;29;20031;-83
2022/10/23 04:34:36;;;;;;;0.40;0.40;;;;;;;13.65;80.28;100667.63;5088506;29;20044;-82
2022/10/23 04:37:07;;;;;;;0.47;0.47;;;;;;;13.64;80.29;100665.91;5089544;29;21014;-82
2022/10/23 04:39:37;;;;;;;1.08;0.98;;;;;;;13.63;79.17;100664.19;5073114;28;20032;-83
2022/10/23 04:42:08;;;;;;;0.85;0.52;;;;;;;13.67;78.67;100660.53;5105306;29;20043;-82
2022/10/23 04:44:38;;;;;;;2.53;1.35;;;;;;;13.60;79.66;100664.28;5084103;28;20055;-83
2022/10/23 04:47:09;;;;;;;0.45;0.45;;;;;;;13.66;78.47;100670.19;5121325;29;20123;-81
2022/10/23 04:49:39;;;;;;;0.40;0.40;;;;;;;13.69;78.12;100669.19;5107495;28;20040;-82
2022/10/23 04:52:10;;;;;;;0.30;0.30;;;;;;;13.68;78.08;100663.09;5082674;29;20031;-83
2022/10/23 04:54:40;;;;;;;0.30;0.30;;;;;;;13.66;78.67;100657.00;5091427;28;20035;-83
2022/10/23 04:57:11;;;;;;;0.45;0.45;;;;;;;13.67;78.92;100660.53;5109488;29;20042;-84
2022/10/23 04:59:41;;;;;;;0.30;0.30;;;;;;;13.66;78.23;100664.06;5091472;29;20094;-82
2022/10/23 05:02:12;;;;;;;0.88;0.88;;;;;;;13.69;78.51;100662.16;5107508;29;20067;-83
2022/10/23 05:04:42;;;;;;;0.38;0.38;;;;;;;13.67;79.06;100660.53;5093114;28;20055;-82
2022/10/23 05:07:13;;;;;;;0.47;0.47;;;;;;;13.69;79.36;100653.38;5113661;29;20499;-82
2022/10/23 05:09:43;;;;;;;0.40;0.40;;;;;;;13.69;77.90;100651.63;5110690;29;20040;-82
2022/10/23 05:12:14;;;;;;;0.90;0.77;;;;;;;13.69;78.29;100654.25;5080038;29;20028;-83
2022/10/23 05:14:45;;;;;;;0.98;0.90;;;;;;;13.69;78.91;100656.00;5079507;29;20446;-82
2022/10/23 05:17:24;;;;;;;0.28;0.28;;;;;;;13.72;77.45;100647.16;5112110;29;20039;-82
2022/10/23 05:19:58;;;;;;;19.17;2.15;;;;;;;13.67;77.88;100637.63;5095364;29;20032;-82
2022/10/23 05:22:32;;;;;;;0.50;0.50;;;;;;;13.64;78.75;100634.28;5084802;29;20043;-82
2022/10/23 05:25:04;;;;;;;0.30;0.30;;;;;;;13.66;77.77;100629.81;5094268;29;20504;-82
2022/10/23 05:27:34;;;;;;;0.50;0.50;;;;;;;13.72;78.71;100629.53;5111578;29;20031;-83
2022/10/23 05:30:05;;;;;;;0.47;0.47;;;;;;;13.63;78.53;100628.16;5079360;29;20080;-82
2022/10/23 05:32:36;;;;;;;1.42;1.33;;;;;;;13.65;77.91;100628.06;5096513;29;20032;-82
2022/10/23 05:35:15;;;;;;;0.40;0.40;;;;;;;13.57;78.46;100632.81;5111092;29;20035;-83
2022/10/23 05:37:49;;;;;;;0.30;0.30;;;;;;;13.60;77.83;100620.34;5113807;29;20028;-82
2022/10/23 05:40:20;;;;;;;0.40;0.40;;;;;;;13.62;77.96;100612.38;5111966;29;20090;-83
2022/10/23 05:42:51;;;;;;;0.82;0.82;;;;;;;13.59;78.22;100617.78;5112713;29;20031;-83
2022/10/23 05:45:21;;;;;;;0.30;0.30;;;;;;;13.59;77.91;100613.38;5094364;29;20040;-83
2022/10/23 05:47:52;;;;;;;0.40;0.40;;;;;;;13.56;78.81;100610.84;5097530;29;20111;-81
2022/10/23 05:50:23;;;;;;;0.20;0.20;;;;;;;13.55;77.88;100603.88;5104360;28;20118;-81
2022/10/23 05:52:53;;;;;;;0.55;0.55;;;;;;;13.54;77.78;100603.00;5104956;29;20040;-81
2022/10/23 05:55:24;;;;;;;0.40;0.40;;;;;;;13.57;77.55;100606.44;5104652;29;20032;-81
2022/10/23 05:57:55;;;;;;;0.60;0.60;;;;;;;13.55;77.51;100595.97;5107235;29;20031;-81
2022/10/23 06:00:25;;;;;;;0.30;0.30;;;;;;;13.54;77.63;100592.47;5104505;29;20040;-81
2022/10/23 06:02:58;;;;;;;0.35;0.35;;;;;;;13.53;77.86;100589.91;5088543;29;20020;-82
2022/10/23 06:05:29;;;;;;;;;;;;;;;13.49;78.53;100597.09;5083528;29;20040;-83
2022/10/23 06:07:59;;;;;;;0.20;0.20;;;;;;;13.51;77.51;100594.38;5094267;29;19922;-82
2022/10/23 06:10:30;;;;;;;0.22;0.22;;;;;;;13.44;78.56;100585.84;5116078;29;20120;-83
2022/10/23 06:13:01;;;;;;;9.50;3.03;;;;;;;13.46;78.04;100594.56;5108300;29;20035;-82
2022/10/23 06:15:32;;;;;;;0.30;0.30;;;;;;;13.49;77.77;100589.19;5120921;28;20060;-82
2022/10/23 06:18:04;;;;;;;0.60;0.60;;;;;;;13.44;78.54;100583.22;5102462;29;20866;-82
2022/10/23 06:20:36;;;;;;;0.30;0.30;;;;;;;13.45;78.28;100589.38;5121183;29;20036;-82
2022/10/23 06:23:07;;;;;;;0.20;0.20;;;;;;;13.47;78.06;100585.75;5094214;29;20051;-82
2022/10/23 06:25:37;;;;;;;0.40;0.40;;;;;;;13.44;78.33;100583.22;5101462;29;20046;-82
2022/10/23 06:28:08;;;;;;;0.25;0.25;;;;;;;13.39;78.62;100598.38;5087113;29;20031;-83
2022/10/23 06:30:38;;;;;;;0.30;0.30;;;;;;;13.44;78.44;100591.13;5085889;29;20040;-83
2022/10/23 06:33:09;;;;;;;0.57;0.57;;;;;;;13.46;78.06;100588.44;5099831;29;20067;-82
2022/10/23 06:35:39;;;;;;;0.28;0.28;;;;;;;13.41;78.56;100585.13;5101582;29;20039;-83
2022/10/23 06:38:10;;;;;;;0.77;0.77;;;;;;;13.43;78.25;100589.41;5101907;29;20550;-83
2022/10/23 06:40:40;;;;;;;1.70;1.35;;;;;;;13.44;78.07;100580.59;5100018;29;20040;-83
2022/10/23 06:43:11;;;;;;;0.70;0.52;;;;;;;13.44;78.11;100582.38;5096435;29;20031;-83
2022/10/23 06:45:41;;;;;;;0.20;0.20;;;;;;;13.54;77.43;100574.00;5077236;29;20071;-82
2022/10/23 06:48:11;;;;;;;0.60;0.57;;;;;;;13.42;79.35;100571.91;5106828;29;20390;-83
2022/10/23 06:50:42;;;;;;;0.30;0.30;;;;;;;13.51;78.07;100576.78;5114518;29;20067;-83
2022/10/23 06:53:13;;;;;;;0.30;0.30;;;;;;;13.47;78.49;100572.56;5083927;29;20032;-82
2022/10/23 06:55:43;;;;;;;1.30;0.63;;;;;;;13.45;78.54;100576.19;5101578;29;20047;-83
2022/10/23 06:58:13;;;;;;;0.30;0.30;;;;;;;13.53;79.39;100577.56;5090900;29;20019;-84
2022/10/23 07:00:44;;;;;;;0.73;0.73;;;;;;;13.52;78.83;100575.00;5115193;28;20050;-83
2022/10/23 07:03:14;;;;;;;0.52;0.52;;;;;;;13.50;78.61;100574.19;5069079;29;20045;-84
2022/10/23 07:05:46;;;;;;;0.20;0.20;;;;;;;13.50;78.50;100576.84;5080622;29;20040;-83
2022/10/23 07:08:16;;;;;;;0.40;0.40;;;;;;;13.51;78.72;100570.66;5048351;29;20511;-84
2022/10/23 07:10:47;;;;;;;0.80;0.60;;;;;;;13.52;79.02;100573.22;5060426;29;20092;-84
2022/10/23 07:13:18;;;;;;;0.30;0.30;;;;;;;13.59;78.17;100572.97;5065572;29;20485;-85
2022/10/23 07:15:48;;;;;;;1.77;0.63;;;;;;;13.61;79.48;100569.34;5081399;29;20132;-84
2022/10/23 07:18:19;;;;;;;0.25;0.25;;;;;;;13.60;79.71;100566.75;5054023;29;20119;-84
2022/10/23 07:20:56;;;;;;;0.45;0.45;;;;;;;13.60;81.49;100558.84;5078565;29;20036;-81
2022/10/23 07:23:27;;;;;;;0.40;0.40;;;;;;;13.57;81.69;100554.56;5081720;29;20054;-78
2022/10/23 07:26:14;;;;;;;0.80;0.80;;;;;;;13.61;80.79;100556.16;5083998;29;20039;-80
2022/10/23 07:28:47;;;;;;;0.60;0.60;;;;;;;13.68;80.14;100557.63;5063467;29;20032;-85
2022/10/23 07:31:17;;;;;;;0.57;0.57;;;;;;;13.66;80.36;100548.06;5092067;29;20097;-83
2022/10/23 07:33:48;;;;;;;0.30;0.30;;;;;;;13.75;79.55;100547.69;5074107;29;20025;-84
2022/10/23 07:36:19;;;;;;;2.17;1.42;;;;;;;13.77;80.82;100543.16;5063268;29;20164;-86
2022/10/23 07:38:50;;;;;;;0.77;0.77;;;;;;;13.79;79.64;100543.97;5082652;29;20111;-82
2022/10/23 07:41:21;;;;;;;0.45;0.45;;;;;;;13.88;81.24;100547.13;5067864;29;20035;-82
2022/10/23 07:43:53;;;;;;;0.40;0.40;;;;;;;13.80;80.89;100544.84;5097875;29;20115;-81
2022/10/23 07:46:24;;;;;;;1.65;0.70;;;;;;;13.87;80.43;100555.97;5086467;29;20049;-82
2022/10/23 07:48:55;;;;;;;0.50;0.50;;;;;;;13.89;80.89;100544.41;5074042;29;20031;-83
2022/10/23 07:51:25;;;;;;;0.40;0.40;;;;;;;13.94;80.77;100545.09;5082445;29;20048;-83
2022/10/23 07:53:55;;;;;;;0.40;0.40;;;;;;;13.94;79.79;100542.44;5083112;29;20032;-84
2022/10/23 07:56:30;;;;;;;0.28;0.25;;;;;;;13.97;80.53;100536.19;5056501;29;20044;-83
2022/10/23 07:59:00;;;;;;;0.82;0.82;;;;;;;14.12;79.72;100527.56;5095439;29;20028;-83
2022/10/23 08:01:33;;;;;;;0.30;0.30;;;;;;;14.05;80.53;100534.06;5060319;29;20119;-82
2022/10/23 08:04:04;;;;;;;0.63;0.55;;;;;;;14.21;80.02;100536.00;5062989;29;20024;-83
2022/10/23 08:06:35;;;;;;;0.60;0.60;;;;;;;14.11;80.08;100536.41;5057886;29;20055;-82
2022/10/23 08:09:05;;;;;;;0.43;0.43;;;;;;;14.14;80.19;100532.78;5055041;29;20058;-82
2022/10/23 08:11:36;;;;;;;0.40;0.40;;;;;;;14.19;80.01;100537.84;5074758;29;20132;-83
2022/10/23 08:14:07;;;;;;;1.50;1.38;;;;;;;14.22;80.25;100535.06;5046203;29;20031;-82
2022/10/23 08:16:38;;;;;;;0.70;0.60;;;;;;;14.26;79.83;100526.09;5061694;29;20056;-83
2022/10/23 08:19:09;;;;;;;0.20;0.20;;;;;;;14.25;80.95;100530.53;5053740;29;20412;-84
2022/10/23 08:21:39;;;;;;;0.40;0.40;;;;;;;14.29;80.19;100537.38;5044552;29;20055;-83
2022/10/23 08:24:14;;;;;;;0.30;0.30;;;;;;;14.38;80.49;100549.28;5076971;29;20032;-83
2022/10/23 08:26:45;;;;;;;0.20;0.20;;;;;;;14.43;80.88;100542.00;5078821;29;20040;-82
2022/10/23 08:29:15;;;;;;;0.57;0.57;;;;;;;14.56;80.56;100533.53;5080614;28;20032;-82
2022/10/23 08:31:46;;;;;;;0.85;0.85;;;;;;;14.49;80.06;100535.59;5065452;29;20911;-83
2022/10/23 08:34:17;;;;;;;0.60;0.60;;;;;;;14.60;80.21;100535.97;5111763;29;20028;-83
2022/10/23 08:36:48;;;;;;;0.57;0.57;;;;;;;14.53;81.04;100533.66;5081478;29;20047;-84
2022/10/23 08:39:19;;;;;;;0.50;0.45;;;;;;;14.56;80.65;100528.25;5096169;28;20032;-83
2022/10/23 08:41:51;;;;;;;1.23;1.13;;;;;;;14.58;80.50;100521.13;5094778;29;20019;-84
2022/10/23 08:44:47;;;;;;;0.40;0.40;;;;;;;14.71;80.67;100526.72;5080658;28;20027;-83
2022/10/23 08:47:35;;;;;;;0.30;0.30;;;;;;;14.73;80.03;100519.53;5087435;29;20052;-82
2022/10/23 08:50:25;;;;;;;0.20;0.20;;;;;;;14.75;80.28;100518.53;5055814;29;20375;-83
2022/10/23 08:53:00;;;;;;;0.45;0.45;;;;;;;14.83;80.68;100518.19;5078744;29;20032;-83
2022/10/23 08:55:39;;;;;;;0.30;0.30;;;;;;;14.89;79.99;100503.84;5099110;29;20446;-83
2022/10/23 08:58:44;;;;;;;0.45;0.45;;;;;;;15.00;79.66;100498.88;5065117;29;20019;-82
2022/10/23 09:01:31;;;;;;;0.30;0.30;;;;;;;15.00;79.53;100488.28;5076466;29;20099;-83
2022/10/23 09:04:04;;;;;;;6.95;1.20;;;;;;;15.03;79.56;100485.50;5078711;29;20043;-83
2022/10/23 09:06:58;;;;;;;0.30;0.30;;;;;;;15.11;79.48;100482.50;5080934;29;20048;-83
2022/10/23 09:09:54;;;;;;;0.95;0.68;;;;;;;15.16;79.69;100474.34;5080508;29;20044;-81
2022/10/23 09:12:27;;;;;;;0.30;0.30;;;;;;;15.19;79.24;100476.81;5075165;29;20038;-81
2022/10/23 09:15:17;;;;;;;2.38;0.50;;;;;;;15.19;79.37;100466.25;5076500;29;20107;-82
2022/10/23 09:17:57;;;;;;;0.68;0.63;;;;;;;15.25;79.12;100480.00;5094837;29;20119;-82
2022/10/23 09:20:33;;;;;;;0.90;0.90;;;;;;;15.28;79.04;100468.44;5076495;29;20328;-85
2022/10/23 09:23:14;;;;;;;0.30;0.30;;;;;;;15.40;78.81;100461.66;5048503;29;20107;-83
2022/10/23 09:25:46;;;;;;;0.22;0.22;;;;;;;15.39;79.15;100466.09;5058525;29;20047;-86
2022/10/23 09:28:21;;;;;;;0.45;0.45;;;;;;;15.42;78.85;100465.09;5062340;29;20091;-84
2022/10/23 09:30:52;;;;;;;0.22;0.22;;;;;;;15.49;78.77;100469.13;5077077;29;20048;-84
2022/10/23 09:33:25;;;;;;;0.35;0.35;;;;;;;15.52;79.12;100452.22;5090588;29;20131;-82
2022/10/23 09:35:57;;;;;;;0.28;0.28;;;;;;;15.58;79.18;100443.97;5078401;29;20702;-83
2022/10/23 09:38:37;;;;;;;0.52;0.52;;;;;;;15.77;77.94;100438.59;5066448;29;20387;-82
2022/10/23 09:41:28;;;;;;;0.55;0.55;;;;;;;15.70;78.61;100440.69;5075560;29;20028;-82
2022/10/23 09:44:26;;;;;;;0.45;0.45;;;;;;;15.77;78.44;100429.78;5091343;29;20024;-82
2022/10/23 09:47:10;;;;;;;3.20;1.00;;;;;;;15.79;78.26;100430.56;5070458;29;20052;-85
2022/10/23 09:49:47;;;;;;;0.30;0.30;;;;;;;15.82;78.67;100419.81;5072712;29;20040;-83
2022/10/23 09:52:18;;;;;;;0.35;0.35;;;;;;;15.92;78.19;100423.69;5063283;29;20551;-83
2022/10/23 09:54:57;;;;;;;0.20;0.20;;;;;;;15.97;77.63;100418.16;5065445;29;20083;-84
2022/10/23 09:57:35;;;;;;;2.42;1.50;;;;;;;15.97;78.04;100411.09;5080901;29;20038;-83
2022/10/23 10:00:26;;;;;;;4.38;1.75;;;;;;;16.05;76.88;100408.00;5090151;29;20044;-83
2022/10/23 10:02:59;;;;;;;0.57;0.57;;;;;;;16.23;77.06;100418.50;5061687;29;20040;-82
2022/10/23 10:05:33;;;;;;;0.77;0.77;;;;;;;16.12;76.51;100422.59;5063343;29;20036;-85
2022/10/23 10:08:19;;;;;;;0.20;0.20;;;;;;;16.14;76.70;100419.88;5075463;29;20961;-86
2022/10/23 10:11:00;;;;;;;1.27;0.63;;;;;;;16.17;77.10;100402.03;5078541;29;20113;-86
2022/10/23 10:13:35;;;;;;;0.50;0.50;;;;;;;16.23;76.75;100390.25;5076617;29;20562;-86
2022/10/23 10:16:10;;;;;;;0.30;0.30;;;;;;;16.23;76.50;100400.84;5078463;29;20044;-86
2022/10/23 10:19:00;;;;;;;0.47;0.47;;;;;;;16.29;76.25;100392.56;5105396;29;20032;-87
2022/10/23 10:21:49;;;;;;;0.30;0.30;;;;;;;16.28;76.00;100380.25;5081679;29;20041;-86
2022/10/23 10:24:33;;;;;;;0.30;0.30;;;;;;;16.29;76.45;100375.81;5079891;29;20032;-87
2022/10/23 10:27:35;;;;;;;0.32;0.32;;;;;;;16.33;76.92;100367.59;5049453;29;20024;-88
2022/10/23 10:30:12;;;;;;;0.30;0.30;;;;;;;16.40;76.52;100367.28;5043817;29;20104;-86
2022/10/23 10:32:52;;;;;;;1.55;0.98;;;;;;;16.32;75.89;100365.88;5052832;29;20558;-86
2022/10/23 10:35:40;;;;;;;0.40;0.40;;;;;;;16.44;76.28;100358.19;5078760;29;20044;-86
2022/10/23 10:38:38;;;;;;;0.40;0.40;;;;;;;16.42;75.69;100360.06;5092405;29;20064;-86
2022/10/23 10:41:17;;;;;;;0.28;0.28;;;;;;;16.50;75.42;100341.94;5060521;29;20099;-86
2022/10/23 10:44:15;;;;;;;1.05;0.95;;;;;;;16.44;75.51;100342.31;5061201;29;20618;-87
2022/10/23 10:46:52;;;;;;;0.55;0.55;;;;;;;16.53;74.50;100336.47;5061087;29;20036;-87
2022/10/23 10:49:34;;;;;;;0.30;0.30;;;;;;;16.49;75.05;100333.16;5092730;29;20070;-86
2022/10/23 10:52:29;;;;;;;5.30;0.82;;;;;;;16.47;74.92;100326.25;5061093;29;20036;-87
2022/10/23 10:55:11;;;;;;;0.20;0.20;;;;;;;16.49;74.91;100332.28;5068197;29;20059;-86
2022/10/23 10:57:47;;;;;;;0.38;0.38;;;;;;;16.51;75.36;100323.34;5047286;29;20243;-85
2022/10/23 11:00:20;;;;;;;0.30;0.30;;;;;;;16.48;75.28;100323.50;5062709;29;20127;-85
2022/10/23 11:03:02;;;;;;;0.52;0.52;;;;;;;16.47;75.16;100323.63;5076589;29;20040;-87
2022/10/23 11:05:45;;;;;;;0.30;0.30;;;;;;;16.52;75.37;100321.53;5079660;29;20771;-89
2022/10/23 11:08:26;;;;;;;0.40;0.30;;;;;;;16.46;75.07;100316.59;5049564;29;20032;-88
2022/10/23 11:11:03;;;;;;;0.40;0.40;;;;;;;16.48;75.42;100318.22;5072770;29;20467;-86
2022/10/23 11:13:36;;;;;;;0.30;0.30;;;;;;;16.45;75.21;100293.72;5088053;29;20143;-88
2022/10/23 11:16:41;;;;;;;0.30;0.30;;;;;;;16.55;73.77;100286.94;5057441;29;20672;-87
2022/10/23 11:19:28;;;;;;;0.20;0.20;;;;;;;16.59;74.60;100309.63;5075203;29;20051;-88
2022/10/23 11:22:06;;;;;;;1.55;1.17;;;;;;;16.45;74.47;100304.31;5074346;29;20067;-87
2022/10/23 11:24:55;;;;;;;0.32;0.32;;;;;;;16.52;74.36;100295.06;5059915;29;20044;-88
2022/10/23 11:27:35;;;;;;;0.40;0.40;;;;;;;16.59;74.00;100293.75;5080359;29;20063;-88
2022/10/23 11:30:21;;;;;;;0.38;0.38;;;;;;;16.53;74.63;100299.41;5058061;29;20064;-87
2022/10/23 11:33:24;;;;;;;0.20;0.20;;;;;;;16.53;73.60;100294.13;5074684;29;20530;-88
2022/10/23 11:36:49;;;;;;;0.20;0.20;;;;;;;16.52;73.12;100274.75;5041797;29;20048;-85
2022/10/23 11:39:26;;;;;;;0.40;0.40;;;;;;;16.65;72.80;100282.78;5068274;29;20279;-87
2022/10/23 11:42:02;;;;;;;0.30;0.30;;;;;;;16.66;72.33;100270.41;5049337;29;20119;-87
2022/10/23 11:44:48;;;;;;;0.30;0.30;;;;;;;16.79;72.36;100281.97;5077252;29;20040;-87
2022/10/23 11:47:35;;;;;;;0.35;0.35;;;;;;;16.83;72.30;100288.78;5076078;29;20031;-87
2022/10/23 11:50:06;;;;;;;0.45;0.45;;;;;;;16.80;73.28;100277.53;5057608;29;20044;-87
2022/10/23 11:52:56;;;;;;;1.40;1.08;;;;;;;16.91;73.20;100263.63;5074878;29;20418;-85
2022/10/23 11:55:29;;;;;;;0.40;0.40;;;;;;;16.97;71.96;100269.44;5077696;29;20142;-87
2022/10/23 11:58:06;;;;;;;0.38;0.38;;;;;;;17.01;72.06;100261.28;5081957;29;20154;-86
2022/10/23 12:01:10;;;;;;;0.50;0.50;;;;;;;17.01;72.75;100255.97;5074907;29;20051;-88
2022/10/23 12:03:50;;;;;;;0.20;0.20;;;;;;;17.06;73.34;100254.75;5054696;29;20040;-87
2022/10/23 12:06:26;;;;;;;0.50;0.50;;;;;;;17.13;72.94;100249.94;5061840;29;20036;-87